createdAt,value
2023-03-03T00:02:50.121Z,8.23
2023-03-03T00:08:54.355Z,8.36
2023-03-03T00:14:58.731Z,8.38
2023-03-03T00:21:05.583Z,8.31
2023-03-03T00:27:36.269Z,8.17
2023-03-03T00:34:00.673Z,8.21
2023-03-03T00:40:26.035Z,8.21
2023-03-03T00:46:31.214Z,8.07
2023-03-03T00:52:41.926Z,8.00
2023-03-03T00:58:48.564Z,8.06
2023-03-03T01:04:57.772Z,7.92
2023-03-03T01:11:09.676Z,7.91
2023-03-03T01:17:15.539Z,8.08
2023-03-03T01:23:18.761Z,8.18
2023-03-03T01:29:25.711Z,7.96
2023-03-03T01:35:30.544Z,7.95
2023-03-03T01:41:36.033Z,8.15
2023-03-03T01:47:50.157Z,8.39
2023-03-03T01:53:58.732Z,8.24
2023-03-03T02:00:05.634Z,8.29
2023-03-03T02:06:39.389Z,8.10
2023-03-03T02:12:48.256Z,8.14
2023-03-03T02:18:55.577Z,8.36
2023-03-03T02:25:03.987Z,8.46
2023-03-03T02:31:19.342Z,8.21
2023-03-03T02:37:26.982Z,8.35
2023-03-03T02:43:44.927Z,8.26
2023-03-03T02:49:47.393Z,8.12
2023-03-03T02:55:54.220Z,8.37
2023-03-03T03:01:56.894Z,8.39
2023-03-03T03:08:01.166Z,8.48
2023-03-03T03:14:10.961Z,8.46
2023-03-03T03:20:16.350Z,8.17
2023-03-03T03:26:22.265Z,8.27
2023-03-03T03:32:30.246Z,8.27
2023-03-03T03:38:38.118Z,8.53
2023-03-03T03:44:43.156Z,8.34
2023-03-03T03:50:49.375Z,8.23
2023-03-03T03:56:52.463Z,8.27
2023-03-03T04:02:56.533Z,8.25
2023-03-03T04:09:02.525Z,8.42
2023-03-03T04:15:10.728Z,8.41
2023-03-03T04:21:17.180Z,8.67
2023-03-03T04:27:22.827Z,8.51
2023-03-03T04:33:26.941Z,8.53
2023-03-03T04:39:30.895Z,8.56
2023-03-03T04:45:34.839Z,8.58
2023-03-03T04:51:37.602Z,8.78
2023-03-03T04:57:46.560Z,8.64
2023-03-03T05:03:50.285Z,8.74
2023-03-03T12:19:24.785Z,13.72
2023-03-03T12:33:36.399Z,13.32
2023-03-03T12:40:43.535Z,13.69
2023-03-03T12:47:36.745Z,13.33
2023-03-03T12:54:44.583Z,13.16
2023-03-03T13:08:47.592Z,13.12
2023-03-03T13:16:01.059Z,13.21
2023-03-03T13:29:48.042Z,13.29
2023-03-03T13:43:33.587Z,12.31
2023-03-03T13:50:19.277Z,12.52
2023-03-03T13:57:17.068Z,12.49
2023-03-03T14:04:04.957Z,12.60
2023-03-03T14:10:36.522Z,12.72
2023-03-03T14:17:13.047Z,12.63
2023-03-03T14:23:45.066Z,12.31
2023-03-03T14:29:48.560Z,12.47
2023-03-03T14:36:12.545Z,12.35
2023-03-03T14:42:33.952Z,12.06
2023-03-03T14:48:52.334Z,12.09
2023-03-03T14:54:57.648Z,12.12
2023-03-03T15:01:26.540Z,12.44
2023-03-03T15:07:38.362Z,12.05
2023-03-03T15:13:40.914Z,12.02
2023-03-03T15:19:52.404Z,11.83
2023-03-03T15:26:19.426Z,11.72
2023-03-03T15:32:31.420Z,11.79
2023-03-03T15:38:47.605Z,11.63
2023-03-03T15:45:06.557Z,11.00
2023-03-03T15:51:50.740Z,11.04
2023-03-03T15:58:37.041Z,10.91
2023-03-03T16:05:01.809Z,10.86
2023-03-03T16:11:19.278Z,10.84
2023-03-03T16:17:35.118Z,10.88
2023-03-03T16:23:58.241Z,10.81
2023-03-03T16:30:46.644Z,10.66
2023-03-03T16:37:10.053Z,10.58
2023-03-03T16:43:16.363Z,10.73
2023-03-03T16:49:43.500Z,10.44
2023-03-03T16:56:14.637Z,10.59
2023-03-03T17:02:46.602Z,10.48
2023-03-03T17:09:03.670Z,10.39
2023-03-03T17:15:17.894Z,10.26
2023-03-03T17:21:30.215Z,10.27
2023-03-03T17:27:50.531Z,10.28
2023-03-03T17:34:16.399Z,10.28
2023-03-03T17:41:03.493Z,10.31
2023-03-03T17:47:13.448Z,10.26
2023-03-03T17:53:40.086Z,10.09
2023-03-03T17:59:42.163Z,10.08
2023-03-03T18:06:03.058Z,10.01
2023-03-03T18:12:10.645Z,10.08
2023-03-03T18:18:26.749Z,10.14
2023-03-03T18:24:33.935Z,10.02
2023-03-03T18:31:05.362Z,9.66
2023-03-03T18:37:37.482Z,9.51
2023-03-03T18:43:46.108Z,9.58
2023-03-03T18:49:48.719Z,9.55
2023-03-03T18:55:54.298Z,9.72
2023-03-03T19:02:11.492Z,9.59
2023-03-03T19:08:25.084Z,9.56
2023-03-03T19:14:34.696Z,9.43
2023-03-03T19:20:42.236Z,9.21
2023-03-03T19:27:09.610Z,9.27
2023-03-03T19:33:28.324Z,9.11
2023-03-03T19:39:59.166Z,9.10
2023-03-03T19:46:38.302Z,9.28
2023-03-03T19:52:57.896Z,9.44
2023-03-03T19:59:06.526Z,9.43
2023-03-03T20:05:20.853Z,9.38
2023-03-03T20:11:48.189Z,9.31
2023-03-03T20:18:10.169Z,9.10
2023-03-03T20:24:43.614Z,9.01
2023-03-03T20:30:49.624Z,8.67
2023-03-03T20:37:13.261Z,8.73
2023-03-03T20:43:43.993Z,8.55
2023-03-03T20:50:20.327Z,8.55
2023-03-03T20:56:52.514Z,8.64
2023-03-03T21:02:57.335Z,8.66
2023-03-03T21:08:59.538Z,8.50
2023-03-03T21:15:08.146Z,8.59
2023-03-03T21:21:10.470Z,8.65
2023-03-03T21:27:25.872Z,8.70
2023-03-03T21:33:45.315Z,8.60
2023-03-03T21:40:25.257Z,8.76
2023-03-03T21:46:27.931Z,8.30
2023-03-03T21:52:30.616Z,8.05
2023-03-03T21:58:37.105Z,8.14
2023-03-03T22:04:41.334Z,8.35
2023-03-03T22:10:43.589Z,8.64
2023-03-03T22:16:46.042Z,8.50
2023-03-03T22:22:48.249Z,8.67
2023-03-03T22:28:50.410Z,8.43
2023-03-03T22:34:52.701Z,8.41
2023-03-03T22:40:55.971Z,8.58
2023-03-03T22:46:58.118Z,8.63
2023-03-03T22:53:01.574Z,8.63
2023-03-03T22:59:03.628Z,8.48
2023-03-03T23:05:11.173Z,8.49
2023-03-03T23:11:13.836Z,8.68
2023-03-03T23:17:16.026Z,8.63
2023-03-03T23:23:18.109Z,8.40
2023-03-03T23:29:20.570Z,8.64
2023-03-03T23:35:22.964Z,8.61
2023-03-03T23:41:26.527Z,8.94
2023-03-03T23:47:28.716Z,8.74
2023-03-03T23:53:31.126Z,8.62
2023-03-03T23:59:33.296Z,8.59
